Time;durP1;ratioP1;P1;durP2;ratioP2;P2;SDS_P1;SDS_P2;PMS_P1;PMS_P2;Temp;Humidity;BMP_temperature;BMP_pressure;BME280_temperature;BME280_humidity;BME280_pressure;Samples;Min_cycle;Max_cycle;Signal;HPM_P1;HPM_P2
2022/11/08 00:01:50;;;;;;;;;;;;;;;15.26;77.26;100525.94;1285679;23;684;-85
2022/11/08 00:02:40;;;;;;;;;;;;;;;15.18;76.90;100538.34;1284725;23;632;-85
2022/11/08 00:03:31;;;;;;;;;;;;;;;15.23;77.74;100533.41;1283984;23;647;-86
2022/11/08 00:04:21;;;;;;;;;;;;;;;15.21;76.88;100535.41;1284532;23;640;-86
2022/11/08 00:14:26;;;;;;;;;;;;;;;15.28;77.28;100533.84;1285028;23;634;-86
2022/11/08 00:15:16;;;;;;;;;;;;;;;15.28;77.36;100534.69;1284855;23;667;-84
2022/11/08 00:16:07;;;;;;;;;;;;;;;15.21;77.08;100538.09;1284598;23;654;-86
2022/11/08 00:16:57;;;;;;;;;;;;;;;15.23;76.93;100536.09;1287131;22;637;-86
2022/11/08 00:17:47;;;;;;;;;;;;;;;15.20;77.71;100531.88;1284710;23;751;-85
2022/11/08 00:18:38;;;;;;;;;;;;;;;15.26;77.70;100533.13;1284302;23;763;-83
2022/11/08 00:19:28;;;;;;;;;;;;;;;15.29;77.70;100531.03;1284534;23;621;-83
2022/11/08 00:20:19;;;;;;;;;;;;;;;15.28;77.53;100526.66;1284751;23;641;-82
2022/11/08 00:21:09;;;;;;;;;;;;;;;15.27;77.64;100529.47;1284575;23;643;-82
2022/11/08 00:22:00;;;;;;;;;;;;;;;15.23;76.68;100526.19;1284497;23;661;-84
2022/11/08 00:22:50;;;;;;;;;;;;;;;15.22;77.87;100529.06;1284576;23;629;-82
2022/11/08 00:23:41;;;;;;;;;;;;;;;15.25;78.00;100528.75;1287559;22;586;-82
2022/11/08 00:24:31;;;;;;;;;;;;;;;15.25;77.39;100529.59;1284625;23;686;-82
2022/11/08 00:25:21;;;;;;;;;;;;;;;15.29;78.28;100530.19;1284675;23;649;-83
2022/11/08 00:26:12;;;;;;;;;;;;;;;15.30;77.86;100534.56;1282954;23;709;-84
2022/11/08 00:27:03;;;;;;;;;;;;;;;15.32;77.40;100529.91;1285493;23;647;-85
2022/11/08 00:27:53;;;;;;;;;;;;;;;15.33;77.67;100531.59;1283791;23;998;-86
2022/11/08 00:28:43;;;;;;;;;;;;;;;15.31;77.89;100536.25;1284711;23;692;-85
2022/11/08 00:29:37;;;;;;;;;;;;;;;15.25;77.27;100526.06;1284641;23;637;-85
2022/11/08 00:30:27;;;;;;;;;;;;;;;15.28;78.21;100523.13;1284582;23;1916;-86
2022/11/08 00:31:18;;;;;;;;;;;;;;;15.25;77.20;100529.59;1284555;23;601;-85
2022/11/08 00:32:08;;;;;;;;;;;;;;;15.27;77.97;100532.16;1284808;23;648;-85
2022/11/08 00:32:59;;;;;;;;;;;;;;;15.29;78.42;100528.34;1283849;23;641;-87
2022/11/08 00:33:49;;;;;;;;;;;;;;;15.31;77.96;100522.84;1285923;23;630;-84
2022/11/08 00:34:40;;;;;;;;;;;;;;;15.33;77.96;100526.25;1285662;23;664;-84
2022/11/08 00:35:30;;;;;;;;;;;;;;;15.31;78.08;100524.69;1285005;23;672;-85
2022/11/08 00:36:20;;;;;;;;;;;;;;;15.33;78.28;100526.25;1283848;23;641;-86
2022/11/08 00:37:11;;;;;;;;;;;;;;;15.32;77.87;100518.31;1284814;23;637;-85
2022/11/08 00:38:01;;;;;;;;;;;;;;;15.25;78.01;100524.22;1284733;23;554;-85
2022/11/08 00:38:52;;;;;;;;;;;;;;;15.29;78.24;100522.13;1285186;23;649;-89
2022/11/08 00:39:42;;;;;;;;;;;;;;;15.29;77.72;100524.81;1284452;23;626;-89
2022/11/08 00:40:33;;;;;;;;;;;;;;;15.24;76.95;100519.00;1285347;23;557;-90
2022/11/08 00:41:23;;;;;;;;;;;;;;;15.23;77.80;100517.28;1285185;23;649;-89
2022/11/08 00:42:14;;;;;;;;;;;;;;;15.22;78.34;100519.16;1283841;23;613;-89
2022/11/08 00:43:04;;;;;;;;;;;;;;;15.24;77.99;100519.84;1285064;23;681;-86
2022/11/08 00:43:55;;;;;;;;;;;;;;;15.25;78.15;100515.31;1285100;23;636;-84
2022/11/08 00:44:45;;;;;;;;;;;;;;;15.26;78.11;100517.88;1285295;23;657;-85
2022/11/08 00:45:35;;;;;;;;;;;;;;;15.29;78.07;100517.59;1285128;23;676;-85
2022/11/08 00:46:26;;;;;;;;;;;;;;;15.28;78.25;100523.97;1285163;23;633;-85
2022/11/08 00:47:16;;;;;;;;;;;;;;;15.26;78.11;100515.19;1283710;23;598;-85
2022/11/08 00:48:07;;;;;;;;;;;;;;;15.30;78.36;100515.78;1284783;23;575;-86
2022/11/08 00:48:57;;;;;;;;;;;;;;;15.29;78.20;100514.06;1285239;23;637;-85
2022/11/08 00:49:48;;;;;;;;;;;;;;;15.29;77.68;100514.06;1285005;23;661;-85
2022/11/08 00:50:38;;;;;;;;;;;;;;;15.29;78.35;100516.75;1285217;23;1881;-85
2022/11/08 00:51:28;;;;;;;;;;;;;;;15.30;78.44;100510.41;1284942;23;617;-86
2022/11/08 00:52:19;;;;;;;;;;;;;;;15.27;77.97;100516.03;1288986;22;1184;-86
2022/11/08 00:53:09;;;;;;;;;;;;;;;15.25;77.48;100515.31;1290965;23;720;-85
2022/11/08 00:54:00;;;;;;;;;;;;;;;15.26;77.79;100517.03;1290638;23;672;-85
2022/11/08 00:54:50;;;;;;;;;;;;;;;15.29;78.19;100511.38;1292204;23;570;-85
2022/11/08 00:55:41;;;;;;;;;;;;;;;15.31;78.30;100517.47;1291762;23;649;-84
2022/11/08 00:56:31;;;;;;;;;;;;;;;15.32;77.93;100519.16;1291963;23;617;-83
2022/11/08 00:57:22;;;;;;;;;;;;;;;15.25;77.54;100520.69;1291960;23;652;-83
2022/11/08 00:58:12;;;;;;;;;;;;;;;15.30;78.45;100513.09;1291252;23;676;-83
2022/11/08 00:59:02;;;;;;;;;;;;;;;15.31;78.01;100522.84;1290451;23;642;-84
2022/11/08 00:59:53;;;;;;;;;;;;;;;15.25;77.45;100518.88;1292199;23;655;-83
2022/11/08 01:00:43;;;;;;;;;;;;;;;15.26;77.86;100522.41;1292048;22;711;-84
2022/11/08 01:01:34;;;;;;;;;;;;;;;15.30;78.10;100515.78;1289616;23;610;-85
2022/11/08 01:02:24;;;;;;;;;;;;;;;15.25;77.68;100520.69;1292001;23;672;-84
2022/11/08 01:03:18;;;;;;;;;;;;;;;15.23;78.32;100511.94;1292309;23;684;-85
2022/11/08 01:04:08;;;;;;;;;;;;;;;15.21;78.46;100513.94;1295958;22;756;-84
2022/11/08 01:04:59;;;;;;;;;;;;;;;15.25;78.36;100518.88;1296374;22;621;-84
2022/11/08 01:05:49;;;;;;;;;;;;;;;15.27;78.23;100516.03;1290954;23;644;-89
2022/11/08 01:06:40;;;;;;;;;;;;;;;15.29;78.16;100519.44;1292341;23;638;-88
2022/11/08 01:07:30;;;;;;;;;;;;;;;15.29;78.08;100514.06;1292194;23;715;-87
2022/11/08 01:08:20;;;;;;;;;;;;;;;15.31;77.94;100513.94;1296750;22;618;-88
2022/11/08 01:09:11;;;;;;;;;;;;;;;15.32;77.87;100513.81;1297680;22;657;-87
2022/11/08 01:10:01;;;;;;;;;;;;;;;15.31;78.25;100519.31;1297658;22;609;-86
2022/11/08 01:10:52;;;;;;;;;;;;;;;15.31;78.07;100512.09;1298009;22;556;-86
2022/11/08 01:11:45;;;;;;;;;;;;;;;15.30;78.39;100510.41;1297490;22;633;-86
2022/11/08 01:12:35;;;;;;;;;;;;;;;15.31;78.07;100512.09;1295663;22;562;-88
2022/11/08 01:13:26;;;;;;;;;;;;;;;15.29;77.78;100508.69;1296930;22;669;-88
2022/11/08 01:14:16;;;;;;;;;;;;;;;15.29;78.26;100511.38;1297608;22;615;-88
2022/11/08 01:15:07;;;;;;;;;;;;;;;15.19;76.74;100515.91;1297727;22;771;-87
2022/11/08 01:15:57;;;;;;;;;;;;;;;15.25;78.30;100512.66;1297349;22;617;-88
2022/11/08 01:16:48;;;;;;;;;;;;;;;15.27;78.29;100513.34;1296443;22;645;-86
2022/11/08 01:17:38;;;;;;;;;;;;;;;15.24;77.94;100510.94;1297090;22;639;-87
2022/11/08 01:18:29;;;;;;;;;;;;;;;15.26;78.02;100503.59;1297643;22;618;-87
2022/11/08 01:19:19;;;;;;;;;;;;;;;15.26;78.05;100514.34;1297690;22;640;-86
2022/11/08 01:20:09;;;;;;;;;;;;;;;15.25;78.45;100499.22;1297619;22;692;-86
2022/11/08 01:21:00;;;;;;;;;;;;;;;15.24;78.22;100505.56;1297732;22;629;-82
2022/11/08 01:21:50;;;;;;;;;;;;;;;15.24;78.27;100494.84;1297875;22;688;-82
2022/11/08 01:22:41;;;;;;;;;;;;;;;15.26;78.15;100500.91;1297552;22;631;-83
2022/11/08 01:23:32;;;;;;;;;;;;;;;15.29;78.31;100504.19;1297664;22;593;-84
2022/11/08 01:24:22;;;;;;;;;;;;;;;15.29;78.30;100504.19;1297659;22;621;-83
2022/11/08 01:25:13;;;;;;;;;;;;;;;15.31;78.26;100493.31;1297528;22;601;-83
2022/11/08 01:26:04;;;;;;;;;;;;;;;15.32;78.24;100494.16;1297321;22;734;-83
2022/11/08 01:26:54;;;;;;;;;;;;;;;15.31;77.92;100485.25;1295748;22;629;-83
2022/11/08 01:27:45;;;;;;;;;;;;;;;15.31;78.30;100496.00;1296927;22;652;-84
2022/11/08 01:28:35;;;;;;;;;;;;;;;15.32;78.35;100488.78;1297300;22;660;-84
2022/11/08 01:29:26;;;;;;;;;;;;;;;15.26;77.98;100485.66;1296435;22;629;-85
2022/11/08 01:30:16;;;;;;;;;;;;;;;15.30;78.37;100488.94;1290029;23;1880;-85
2022/11/08 01:31:07;;;;;;;;;;;;;;;15.31;78.44;100485.25;1293702;22;660;-84
2022/11/08 01:31:57;;;;;;;;;;;;;;;15.31;78.10;100484.41;1299484;22;675;-85
2022/11/08 01:32:47;;;;;;;;;;;;;;;15.29;78.23;100487.22;1297643;22;574;-85
2022/11/08 01:33:38;;;;;;;;;;;;;;;15.30;78.34;100491.59;1297535;22;617;-86
2022/11/08 01:34:28;;;;;;;;;;;;;;;15.26;77.42;100479.44;1297780;22;593;-85
2022/11/08 01:35:19;;;;;;;;;;;;;;;15.27;78.09;100483.81;1297554;22;657;-84
2022/11/08 01:36:09;;;;;;;;;;;;;;;15.28;78.26;100482.84;1297787;22;621;-83
2022/11/08 01:37:00;;;;;;;;;;;;;;;15.30;78.27;100488.94;1297496;22;633;-84
2022/11/08 01:37:50;;;;;;;;;;;;;;;15.29;78.24;100482.72;1297928;22;580;-84
2022/11/08 01:38:40;;;;;;;;;;;;;;;15.31;78.07;100477.19;1297002;22;639;-85
2022/11/08 01:39:31;;;;;;;;;;;;;;;15.32;77.79;100476.22;1296416;22;661;-84
2022/11/08 01:40:22;;;;;;;;;;;;;;;15.32;78.17;100473.53;1296672;22;625;-84
2022/11/08 01:41:12;;;;;;;;;;;;;;;15.34;78.13;100474.25;1297817;22;628;-84
2022/11/08 01:42:03;;;;;;;;;;;;;;;15.33;78.08;100474.38;1297597;22;667;-84
2022/11/08 01:42:53;;;;;;;;;;;;;;;15.32;78.23;100465.47;1297776;22;664;-84
2022/11/08 01:43:44;;;;;;;;;;;;;;;15.33;77.92;100471.69;1297608;22;716;-84
2022/11/08 01:44:34;;;;;;;;;;;;;;;15.34;78.14;100462.66;1297477;22;610;-84
2022/11/08 01:45:25;;;;;;;;;;;;;;;15.33;77.78;100466.31;1297706;22;656;-86
2022/11/08 01:46:15;;;;;;;;;;;;;;;15.34;78.06;100468.03;1297642;22;664;-86
2022/11/08 01:47:06;;;;;;;;;;;;;;;15.33;78.09;100467.19;1297892;22;621;-86
2022/11/08 01:47:56;;;;;;;;;;;;;;;15.32;78.19;100459.25;1298450;22;625;-86
2022/11/08 01:48:47;;;;;;;;;;;;;;;15.33;78.23;100467.19;1297631;22;617;-86
2022/11/08 01:49:37;;;;;;;;;;;;;;;15.31;78.13;100461.09;1297457;22;738;-86
2022/11/08 01:50:27;;;;;;;;;;;;;;;15.30;78.47;100451.34;1297364;22;1931;-86
2022/11/08 01:51:18;;;;;;;;;;;;;;;15.31;78.14;100452.19;1297270;22;668;-86
2022/11/08 01:52:08;;;;;;;;;;;;;;;15.31;78.24;100454.88;1296643;22;574;-86
2022/11/08 01:52:59;;;;;;;;;;;;;;;15.29;78.23;100458.53;1289958;23;684;-86
2022/11/08 01:53:49;;;;;;;;;;;;;;;15.30;78.18;100456.72;1293474;22;726;-87
2022/11/08 01:54:39;;;;;;;;;;;;;;;15.33;78.25;100452.91;1298548;22;631;-89
2022/11/08 01:55:30;;;;;;;;;;;;;;;15.33;78.16;100461.81;1298645;22;695;-88
2022/11/08 01:56:21;;;;;;;;;;;;;;;15.33;77.83;100455.59;1296266;22;613;-88
2022/11/08 01:57:11;;;;;;;;;;;;;;;15.33;78.22;100455.59;1296508;22;597;-88
2022/11/08 01:58:01;;;;;;;;;;;;;;;15.33;78.38;100447.53;1296918;22;588;-88
2022/11/08 01:58:52;;;;;;;;;;;;;;;15.32;77.87;100444.00;1297739;22;680;-89
2022/11/08 01:59:43;;;;;;;;;;;;;;;15.33;78.17;100447.53;1297990;22;640;-88
2022/11/08 02:00:33;;;;;;;;;;;;;;;15.33;78.21;100444.84;1297780;22;672;-88
2022/11/08 02:01:24;;;;;;;;;;;;;;;15.33;78.03;100445.69;1297653;22;628;-88
2022/11/08 02:02:14;;;;;;;;;;;;;;;15.32;78.04;100432.41;1298223;22;680;-89
2022/11/08 02:03:05;;;;;;;;;;;;;;;15.32;77.83;100441.31;1299325;22;633;-87
2022/11/08 02:03:55;;;;;;;;;;;;;;;15.33;78.58;100442.16;1299941;22;585;-86
2022/11/08 02:04:46;;;;;;;;;;;;;;;15.30;77.82;100440.59;1298198;22;676;-87
2022/11/08 02:05:36;;;;;;;;;;;;;;;15.29;78.24;100439.75;1297836;22;687;-87
2022/11/08 02:06:26;;;;;;;;;;;;;;;15.31;77.98;100436.94;1297633;22;632;-88
2022/11/08 02:07:17;;;;;;;;;;;;;;;15.31;77.84;100436.09;1297768;22;600;-86
2022/11/08 02:08:07;;;;;;;;;;;;;;;15.28;78.15;100431.84;1299769;22;626;-85
2022/11/08 02:08:58;;;;;;;;;;;;;;;15.30;78.32;100435.22;1299980;22;625;-85
2022/11/08 02:09:48;;;;;;;;;;;;;;;15.29;77.97;100450.50;1299508;22;672;-85
2022/11/08 02:10:39;;;;;;;;;;;;;;;15.31;78.44;100438.75;1296879;22;1898;-85
2022/11/08 02:11:29;;;;;;;;;;;;;;;15.32;78.06;100432.41;1297176;22;613;-84
2022/11/08 02:12:19;;;;;;;;;;;;;;;15.32;78.10;100438.63;1290258;23;604;-84
2022/11/08 02:13:10;;;;;;;;;;;;;;;15.32;78.29;100430.56;1289955;23;605;-84
2022/11/08 02:14:00;;;;;;;;;;;;;;;15.32;78.53;100435.09;1298390;22;644;-85
2022/11/08 02:14:51;;;;;;;;;;;;;;;15.30;78.15;100429.88;1297553;22;649;-84
2022/11/08 02:15:41;;;;;;;;;;;;;;;15.33;78.51;100434.97;1297674;22;648;-85
2022/11/08 02:16:32;;;;;;;;;;;;;;;15.25;77.35;100430.28;1297506;22;671;-84
2022/11/08 02:17:22;;;;;;;;;;;;;;;15.28;78.30;100431.84;1297370;22;664;-85
2022/11/08 02:18:12;;;;;;;;;;;;;;;15.29;78.39;100431.69;1296251;22;691;-85
2022/11/08 02:19:03;;;;;;;;;;;;;;;15.30;78.19;100432.53;1296812;22;653;-85
2022/11/08 02:19:53;;;;;;;;;;;;;;;15.32;78.49;100429.72;1297301;22;656;-84
2022/11/08 02:20:44;;;;;;;;;;;;;;;15.32;78.30;100425.22;1289868;23;657;-84
2022/11/08 02:21:34;;;;;;;;;;;;;;;15.33;78.20;100434.97;1290056;23;715;-85
2022/11/08 02:22:24;;;;;;;;;;;;;;;15.31;78.04;100428.88;1292718;22;547;-85
2022/11/08 02:23:15;;;;;;;;;;;;;;;15.32;78.09;100433.25;1284478;23;657;-85
2022/11/08 02:24:05;;;;;;;;;;;;;;;15.30;78.10;100435.22;1290908;23;632;-86
2022/11/08 02:24:57;;;;;;;;;;;;;;;15.29;78.39;100431.69;1297787;22;638;-87
2022/11/08 02:25:47;;;;;;;;;;;;;;;15.30;78.40;100424.50;1296639;22;669;-85
2022/11/08 02:26:38;;;;;;;;;;;;;;;15.30;78.09;100429.88;1289997;23;614;-86
2022/11/08 02:27:28;;;;;;;;;;;;;;;15.29;77.98;100429.00;1290319;23;740;-87
2022/11/08 02:28:19;;;;;;;;;;;;;;;15.30;78.27;100424.50;1299342;22;629;-87
2022/11/08 02:29:09;;;;;;;;;;;;;;;15.30;78.24;100427.19;1297582;22;538;-85
2022/11/08 02:29:59;;;;;;;;;;;;;;;15.31;78.16;100433.41;1297609;22;712;-86
2022/11/08 02:30:50;;;;;;;;;;;;;;;15.30;78.04;100429.88;1297511;22;669;-84
2022/11/08 02:31:40;;;;;;;;;;;;;;;15.29;78.10;100422.78;1297674;22;637;-85
2022/11/08 02:32:31;;;;;;;;;;;;;;;15.28;78.20;100426.47;1297616;22;597;-83
2022/11/08 02:33:21;;;;;;;;;;;;;;;15.28;78.42;100419.25;1297500;22;632;-82
2022/11/08 02:34:12;;;;;;;;;;;;;;;15.28;78.03;100421.09;1297398;22;626;-82
2022/11/08 02:35:02;;;;;;;;;;;;;;;15.30;78.36;100419.13;1297597;22;580;-83
2022/11/08 02:35:52;;;;;;;;;;;;;;;15.31;78.18;100423.50;1297785;22;648;-82
2022/11/08 02:36:43;;;;;;;;;;;;;;;15.31;77.79;100425.34;1297451;22;731;-83
2022/11/08 02:37:33;;;;;;;;;;;;;;;15.27;78.14;100422.09;1297678;22;644;-83
2022/11/08 02:38:24;;;;;;;;;;;;;;;15.26;78.16;100418.56;1297261;22;652;-83
2022/11/08 02:39:14;;;;;;;;;;;;;;;15.27;78.46;100419.41;1297710;22;719;-83
2022/11/08 02:40:05;;;;;;;;;;;;;;;15.28;78.35;100419.25;1297998;22;715;-85
2022/11/08 02:40:55;;;;;;;;;;;;;;;15.31;78.17;100412.78;1290002;23;665;-85
2022/11/08 02:41:45;;;;;;;;;;;;;;;15.29;78.01;100412.91;1290169;23;622;-85
2022/11/08 02:42:36;;;;;;;;;;;;;;;15.30;78.15;100413.75;1299284;22;621;-85
2022/11/08 02:43:26;;;;;;;;;;;;;;;15.32;78.06;100410.94;1297604;22;656;-85
2022/11/08 02:44:17;;;;;;;;;;;;;;;15.32;78.43;100408.25;1297398;22;720;-85
2022/11/08 02:45:07;;;;;;;;;;;;;;;15.31;78.08;100410.09;1297694;22;732;-84
2022/11/08 02:45:58;;;;;;;;;;;;;;;15.32;78.04;100406.41;1297431;22;641;-84
2022/11/08 02:46:48;;;;;;;;;;;;;;;15.31;77.95;100409.22;1297640;22;635;-84
2022/11/08 02:47:38;;;;;;;;;;;;;;;15.28;78.04;100408.53;1297844;22;631;-84
2022/11/08 02:48:29;;;;;;;;;;;;;;;15.30;78.12;100397.66;1297443;22;585;-84
2022/11/08 02:49:19;;;;;;;;;;;;;;;15.29;77.92;100412.06;1297536;22;641;-84
2022/11/08 02:50:10;;;;;;;;;;;;;;;15.31;78.24;100410.09;1297370;22;640;-84
2022/11/08 02:51:00;;;;;;;;;;;;;;;15.31;78.07;100399.34;1297505;22;735;-85
2022/11/08 02:51:51;;;;;;;;;;;;;;;15.32;77.91;100403.72;1297502;22;664;-85
2022/11/08 02:52:41;;;;;;;;;;;;;;;15.30;77.50;100397.66;1297278;22;1168;-86
2022/11/08 02:53:31;;;;;;;;;;;;;;;15.30;78.05;100403.00;1297643;22;644;-86
2022/11/08 02:54:22;;;;;;;;;;;;;;;15.31;77.99;100402.03;1297321;22;618;-83
2022/11/08 02:55:12;;;;;;;;;;;;;;;15.32;78.19;100403.72;1297387;22;788;-84
2022/11/08 02:56:03;;;;;;;;;;;;;;;15.28;77.90;100399.63;1297306;22;671;-84
2022/11/08 02:56:53;;;;;;;;;;;;;;;15.32;78.36;100402.88;1297474;22;1268;-85
2022/11/08 02:57:43;;;;;;;;;;;;;;;15.34;78.14;100404.44;1297477;22;715;-84
2022/11/08 02:58:34;;;;;;;;;;;;;;;15.36;78.25;100402.47;1297325;22;617;-85
2022/11/08 02:59:24;;;;;;;;;;;;;;;15.36;78.39;100405.16;1297483;22;627;-86
2022/11/08 03:00:15;;;;;;;;;;;;;;;15.35;78.31;100403.44;1297283;22;640;-87
2022/11/08 03:01:05;;;;;;;;;;;;;;;15.35;78.44;100397.22;1297550;22;676;-86
2022/11/08 03:01:56;;;;;;;;;;;;;;;15.35;78.46;100390.03;1297442;22;704;-85
2022/11/08 03:02:50;;;;;;;;;;;;;;;15.35;78.12;100389.19;1297543;22;688;-87
2022/11/08 03:03:40;;;;;;;;;;;;;;;15.33;78.36;100393.84;1297322;22;684;-85
2022/11/08 03:04:31;;;;;;;;;;;;;;;15.33;78.46;100393.84;1297416;22;645;-88
2022/11/08 03:05:21;;;;;;;;;;;;;;;15.32;78.52;100387.63;1297335;22;636;-83
2022/11/08 03:06:11;;;;;;;;;;;;;;;15.33;78.43;100391.16;1297428;22;645;-84
2022/11/08 03:07:02;;;;;;;;;;;;;;;15.33;78.50;100391.16;1297518;22;569;-82
2022/11/08 03:07:52;;;;;;;;;;;;;;;15.34;78.11;100390.16;1297200;22;633;-83
2022/11/08 03:08:43;;;;;;;;;;;;;;;15.33;78.36;100394.69;1295546;22;614;-83
2022/11/08 03:09:33;;;;;;;;;;;;;;;15.33;78.38;100389.31;1296643;22;623;-83
2022/11/08 03:10:24;;;;;;;;;;;;;;;15.32;78.40;100390.31;1297138;22;1888;-82
2022/11/08 03:11:14;;;;;;;;;;;;;;;15.31;78.51;100388.59;1297343;22;593;-82
2022/11/08 03:12:04;;;;;;;;;;;;;;;15.32;78.75;100387.63;1297443;22;616;-82
2022/11/08 03:12:55;;;;;;;;;;;;;;;15.32;78.23;100392.13;1297413;22;645;-82
2022/11/08 03:13:45;;;;;;;;;;;;;;;15.32;78.76;100379.56;1297505;22;640;-82
2022/11/08 03:14:36;;;;;;;;;;;;;;;15.31;78.36;100388.59;1297281;22;668;-82
2022/11/08 03:15:26;;;;;;;;;;;;;;;15.32;78.17;100379.56;1297421;22;696;-82
2022/11/08 03:16:17;;;;;;;;;;;;;;;15.32;78.25;100379.56;1297284;22;610;-82
2022/11/08 03:17:07;;;;;;;;;;;;;;;15.31;78.60;100377.03;1297411;22;626;-82
2022/11/08 03:17:58;;;;;;;;;;;;;;;15.29;78.25;100378.00;1297613;22;651;-82
2022/11/08 03:18:49;;;;;;;;;;;;;;;15.29;78.28;100379.84;1297383;22;661;-82
2022/11/08 03:19:39;;;;;;;;;;;;;;;15.30;78.61;100381.53;1297451;22;640;-82
2022/11/08 03:20:30;;;;;;;;;;;;;;;15.30;78.09;100373.47;1297558;22;648;-83
2022/11/08 03:21:20;;;;;;;;;;;;;;;15.32;78.13;100376.03;1297344;22;701;-83
2022/11/08 03:22:10;;;;;;;;;;;;;;;15.31;77.92;100375.19;1297494;22;646;-83
2022/11/08 03:23:01;;;;;;;;;;;;;;;15.31;78.45;100371.66;1296404;22;760;-84
2022/11/08 03:23:51;;;;;;;;;;;;;;;15.29;78.50;100367.28;1296292;22;653;-85
2022/11/08 03:24:42;;;;;;;;;;;;;;;15.31;78.34;100368.97;1297397;22;649;-85
2022/11/08 03:25:32;;;;;;;;;;;;;;;15.30;78.17;100360.06;1297413;22;637;-89
2022/11/08 03:26:23;;;;;;;;;;;;;;;15.29;78.03;100359.22;1297663;22;644;-88
2022/11/08 03:27:14;;;;;;;;;;;;;;;15.31;78.11;100358.22;1297475;22;665;-88
2022/11/08 03:28:04;;;;;;;;;;;;;;;15.31;78.13;100353.72;1297537;22;633;-88
2022/11/08 03:28:55;;;;;;;;;;;;;;;15.28;78.16;100352.16;1297512;22;589;-88
2022/11/08 03:29:45;;;;;;;;;;;;;;;15.29;78.39;100359.22;1297623;22;733;-88
2022/11/08 03:30:35;;;;;;;;;;;;;;;15.29;78.16;100356.53;1297291;22;1876;-87
2022/11/08 03:31:26;;;;;;;;;;;;;;;15.32;78.04;100359.94;1297238;22;676;-87
2022/11/08 03:32:16;;;;;;;;;;;;;;;15.31;78.09;100342.97;1297359;22;622;-88
2022/11/08 03:33:07;;;;;;;;;;;;;;;15.30;78.16;100349.31;1297480;22;618;-87
2022/11/08 03:33:57;;;;;;;;;;;;;;;15.29;77.37;100345.78;1297544;22;625;-87
2022/11/08 03:34:48;;;;;;;;;;;;;;;15.29;78.04;100345.78;1297507;22;629;-86
2022/11/08 03:35:38;;;;;;;;;;;;;;;15.27;78.12;100339.72;1297356;22;601;-86
2022/11/08 03:36:28;;;;;;;;;;;;;;;15.28;78.25;100335.19;1297505;22;672;-86
2022/11/08 03:37:19;;;;;;;;;;;;;;;15.27;78.36;100333.50;1296792;22;630;-86
2022/11/08 03:38:09;;;;;;;;;;;;;;;15.28;78.32;100338.72;1297504;22;727;-86
2022/11/08 03:39:00;;;;;;;;;;;;;;;15.28;77.83;100333.34;1297285;22;630;-87
2022/11/08 03:39:50;;;;;;;;;;;;;;;15.28;77.70;100321.78;1297408;22;617;-86
2022/11/08 03:40:41;;;;;;;;;;;;;;;15.29;78.24;100328.84;1297441;22;612;-85
2022/11/08 03:41:31;;;;;;;;;;;;;;;15.28;77.86;100319.94;1297425;22;657;-86
2022/11/08 03:42:21;;;;;;;;;;;;;;;15.28;77.91;100309.19;1297427;22;632;-85
2022/11/08 03:43:12;;;;;;;;;;;;;;;15.27;78.04;100323.59;1297164;22;608;-85
2022/11/08 03:44:02;;;;;;;;;;;;;;;15.28;77.96;100313.72;1297444;22;655;-83
2022/11/08 03:44:53;;;;;;;;;;;;;;;15.27;77.88;100315.56;1297267;22;613;-84
2022/11/08 03:45:43;;;;;;;;;;;;;;;15.26;77.98;100310.31;1297227;22;668;-85
2022/11/08 03:46:33;;;;;;;;;;;;;;;15.27;78.04;100312.03;1297032;22;678;-84
2022/11/08 03:47:24;;;;;;;;;;;;;;;15.26;78.00;100319.22;1295987;22;685;-88
2022/11/08 03:48:14;;;;;;;;;;;;;;;15.26;77.93;100310.31;1289905;23;743;-83
2022/11/08 03:49:05;;;;;;;;;;;;;;;15.26;77.93;100310.31;1291514;23;996;-81
2022/11/08 03:49:55;;;;;;;;;;;;;;;15.28;77.92;100311.03;1292995;22;664;-83
2022/11/08 03:50:46;;;;;;;;;;;;;;;15.28;77.86;100298.47;1292156;22;1912;-83
2022/11/08 03:51:36;;;;;;;;;;;;;;;15.30;77.70;100309.06;1291331;23;665;-83
2022/11/08 03:52:26;;;;;;;;;;;;;;;15.31;77.72;100305.38;1297893;22;1115;-83
2022/11/08 03:53:17;;;;;;;;;;;;;;;15.31;77.91;100296.47;1297150;22;561;-82
2022/11/08 03:54:08;;;;;;;;;;;;;;;15.31;77.67;100299.16;1298202;22;679;-84
2022/11/08 03:54:58;;;;;;;;;;;;;;;15.28;77.76;100293.09;1297283;22;617;-83
2022/11/08 03:55:48;;;;;;;;;;;;;;;15.29;77.50;100293.94;1297225;22;597;-82
2022/11/08 03:56:39;;;;;;;;;;;;;;;15.27;77.69;100286.03;1297318;22;774;-83
2022/11/08 03:57:29;;;;;;;;;;;;;;;15.25;77.85;100289.84;1297509;22;636;-83
2022/11/08 03:58:20;;;;;;;;;;;;;;;15.24;77.66;100288.13;1297319;22;636;-84
2022/11/08 03:59:10;;;;;;;;;;;;;;;15.26;77.23;100288.84;1297172;22;621;-83
2022/11/08 04:00:01;;;;;;;;;;;;;;;15.25;77.11;100279.94;1297498;22;672;-83
2022/11/08 04:00:51;;;;;;;;;;;;;;;15.24;77.13;100275.56;1297274;22;621;-83
2022/11/08 04:01:41;;;;;;;;;;;;;;;15.25;77.39;100271.91;1297352;22;582;-83
2022/11/08 04:02:32;;;;;;;;;;;;;;;15.25;77.56;100284.47;1297204;22;609;-83
2022/11/08 04:03:22;;;;;;;;;;;;;;;15.24;77.84;100275.56;1297385;22;703;-83
2022/11/08 04:04:13;;;;;;;;;;;;;;;15.23;77.59;100275.72;1296921;22;754;-84
2022/11/08 04:05:03;;;;;;;;;;;;;;;15.25;77.57;100271.03;1297438;22;661;-83
2022/11/08 04:05:54;;;;;;;;;;;;;;;15.24;77.57;100263.97;1297376;22;620;-83
2022/11/08 04:06:45;;;;;;;;;;;;;;;15.24;77.47;100270.19;1296896;22;565;-83
2022/11/08 04:07:35;;;;;;;;;;;;;;;15.24;77.58;100269.34;1297339;22;683;-83
2022/11/08 04:08:26;;;;;;;;;;;;;;;15.24;77.40;100269.34;1297234;22;637;-84
2022/11/08 04:09:16;;;;;;;;;;;;;;;15.24;77.65;100272.03;1297357;22;664;-83
2022/11/08 04:10:07;;;;;;;;;;;;;;;15.24;77.31;100274.72;1297597;22;652;-83
2022/11/08 04:15:13;;;;;;;;;;;;;;;15.22;77.60;100261.47;1297464;22;638;-83
2022/11/08 04:15:35;;;;;;;;;;;;;;;15.22;77.47;100263.31;1295707;22;617;-83
2022/11/08 04:16:26;;;;;;;;;;;;;;;15.23;77.19;100257.75;1297135;22;743;-82
2022/11/08 04:17:16;;;;;;;;;;;;;;;15.22;77.57;100258.78;1297386;22;633;-83
2022/11/08 04:21:34;;;;;;;;;;;;;;;15.24;77.31;100258.63;1295140;22;636;-83
2022/11/08 04:22:25;;;;;;;;;;;;;;;15.21;77.31;100257.09;1298028;22;669;-84
2022/11/08 04:23:15;;;;;;;;;;;;;;;15.21;77.15;100258.94;1297918;22;632;-84
2022/11/08 04:24:05;;;;;;;;;;;;;;;15.22;77.18;100255.25;1297965;22;656;-84
2022/11/08 04:24:56;;;;;;;;;;;;;;;15.22;77.15;100261.47;1297680;22;688;-83
2022/11/08 04:25:46;;;;;;;;;;;;;;;15.23;77.01;100251.53;1297509;22;719;-83
2022/11/08 04:26:37;;;;;;;;;;;;;;;15.22;77.10;100255.25;1296501;22;625;-85
2022/11/08 04:27:27;;;;;;;;;;;;;;;15.22;77.28;100253.41;1296437;22;664;-84
2022/11/08 04:28:18;;;;;;;;;;;;;;;15.23;77.21;100259.59;1297224;22;853;-83
2022/11/08 04:29:08;;;;;;;;;;;;;;;15.21;77.08;100254.41;1297333;22;656;-84
2022/11/08 04:29:58;;;;;;;;;;;;;;;15.22;77.35;100252.56;1297345;22;665;-83
2022/11/08 04:30:49;;;;;;;;;;;;;;;15.21;77.12;100265.13;1297206;22;1892;-84
2022/11/08 04:31:39;;;;;;;;;;;;;;;15.22;77.07;100255.25;1297430;22;660;-84
2022/11/08 04:32:30;;;;;;;;;;;;;;;15.22;77.28;100255.25;1297443;22;649;-85
2022/11/08 04:33:20;;;;;;;;;;;;;;;15.21;77.14;100256.25;1297207;22;644;-85
2022/11/08 04:34:10;;;;;;;;;;;;;;;15.21;77.12;100262.47;1297544;22;688;-85
2022/11/08 04:35:01;;;;;;;;;;;;;;;15.21;77.53;100253.56;1297333;22;648;-85
2022/11/08 04:35:51;;;;;;;;;;;;;;;15.18;77.02;100246.63;1297408;22;589;-85
2022/11/08 04:36:42;;;;;;;;;;;;;;;15.17;77.19;100252.16;1297384;22;624;-84
2022/11/08 04:37:32;;;;;;;;;;;;;;;15.17;77.37;100249.47;1297282;22;641;-85
2022/11/08 04:38:23;;;;;;;;;;;;;;;15.18;77.24;100249.31;1297168;22;649;-85
2022/11/08 04:39:13;;;;;;;;;;;;;;;15.19;77.26;100251.00;1297340;22;701;-85
2022/11/08 04:40:03;;;;;;;;;;;;;;;15.19;77.09;100248.34;1297491;22;657;-86
2022/11/08 04:40:54;;;;;;;;;;;;;;;15.20;77.25;100257.22;1297504;22;623;-85
2022/11/08 04:41:44;;;;;;;;;;;;;;;15.20;77.18;100241.97;1297404;22;704;-84
2022/11/08 04:42:35;;;;;;;;;;;;;;;15.19;77.26;100240.28;1297221;22;646;-84
2022/11/08 04:43:25;;;;;;;;;;;;;;;15.20;77.08;100243.81;1297224;22;611;-84
2022/11/08 04:44:17;;;;;;;;;;;;;;;15.21;77.06;100240.13;1297539;22;632;-84